sensor_id;sensor_type;location;lat;lon;timestamp;P1;durP1;ratioP1;P2;durP2;ratioP2
27491;SDS011;14927;51.210;6.838;2023-08-17T00:01:58;4.00;;;2.97;;
27491;SDS011;14927;51.210;6.838;2023-08-17T00:04:42;3.60;;;2.28;;
27491;SDS011;14927;51.210;6.838;2023-08-17T00:07:27;4.28;;;2.67;;
27491;SDS011;14927;51.210;6.838;2023-08-17T00:10:11;4.32;;;2.53;;
27491;SDS011;14927;51.210;6.838;2023-08-17T00:12:57;3.85;;;2.83;;
27491;SDS011;14927;51.210;6.838;2023-08-17T00:15:42;4.10;;;2.30;;
27491;SDS011;14927;51.210;6.838;2023-08-17T00:18:28;3.15;;;2.33;;
27491;SDS011;14927;51.210;6.838;2023-08-17T00:21:13;5.07;;;2.38;;
27491;SDS011;14927;51.210;6.838;2023-08-17T00:23:59;4.18;;;2.28;;
27491;SDS011;14927;51.210;6.838;2023-08-17T00:26:44;4.20;;;2.47;;
27491;SDS011;14927;51.210;6.838;2023-08-17T00:29:28;4.00;;;2.55;;
27491;SDS011;14927;51.210;6.838;2023-08-17T00:32:13;3.67;;;2.10;;
27491;SDS011;14927;51.210;6.838;2023-08-17T00:34:59;3.50;;;2.17;;
27491;SDS011;14927;51.210;6.838;2023-08-17T00:37:44;3.97;;;2.47;;
27491;SDS011;14927;51.210;6.838;2023-08-17T00:40:29;2.30;;;2.10;;
27491;SDS011;14927;51.210;6.838;2023-08-17T00:43:14;4.63;;;2.88;;
27491;SDS011;14927;51.210;6.838;2023-08-17T00:45:58;2.90;;;1.90;;
27491;SDS011;14927;51.210;6.838;2023-08-17T00:48:43;2.47;;;1.75;;
27491;SDS011;14927;51.210;6.838;2023-08-17T00:51:27;3.88;;;1.85;;
27491;SDS011;14927;51.210;6.838;2023-08-17T00:54:13;6.00;;;2.17;;
27491;SDS011;14927;51.210;6.838;2023-08-17T00:57:08;2.58;;;1.95;;
27491;SDS011;14927;51.210;6.838;2023-08-17T00:59:53;7.70;;;2.03;;
27491;SDS011;14927;51.210;6.838;2023-08-17T01:02:42;4.53;;;2.17;;
27491;SDS011;14927;51.210;6.838;2023-08-17T01:05:26;3.58;;;2.00;;
27491;SDS011;14927;51.210;6.838;2023-08-17T01:08:11;3.45;;;2.03;;
27491;SDS011;14927;51.210;6.838;2023-08-17T01:11:08;2.95;;;1.90;;
27491;SDS011;14927;51.210;6.838;2023-08-17T01:17:15;4.32;;;2.40;;
27491;SDS011;14927;51.210;6.838;2023-08-17T01:20:07;3.40;;;2.30;;
27491;SDS011;14927;51.210;6.838;2023-08-17T01:23:02;5.22;;;2.50;;
27491;SDS011;14927;51.210;6.838;2023-08-17T01:25:49;4.32;;;2.15;;
27491;SDS011;14927;51.210;6.838;2023-08-17T01:28:34;3.85;;;2.55;;
27491;SDS011;14927;51.210;6.838;2023-08-17T01:31:28;5.60;;;2.20;;
27491;SDS011;14927;51.210;6.838;2023-08-17T01:34:18;5.88;;;2.80;;
27491;SDS011;14927;51.210;6.838;2023-08-17T01:37:07;3.88;;;2.30;;
27491;SDS011;14927;51.210;6.838;2023-08-17T01:39:55;4.75;;;2.50;;
27491;SDS011;14927;51.210;6.838;2023-08-17T01:42:42;3.30;;;2.25;;
27491;SDS011;14927;51.210;6.838;2023-08-17T01:45:27;4.63;;;2.25;;
27491;SDS011;14927;51.210;6.838;2023-08-17T01:48:11;6.30;;;2.47;;
27491;SDS011;14927;51.210;6.838;2023-08-17T01:50:56;4.72;;;2.03;;
27491;SDS011;14927;51.210;6.838;2023-08-17T01:53:41;4.13;;;2.10;;
27491;SDS011;14927;51.210;6.838;2023-08-17T01:56:25;3.65;;;2.00;;
27491;SDS011;14927;51.210;6.838;2023-08-17T01:59:10;3.33;;;2.03;;
27491;SDS011;14927;51.210;6.838;2023-08-17T02:01:55;2.05;;;1.85;;
27491;SDS011;14927;51.210;6.838;2023-08-17T02:04:40;7.13;;;2.97;;
27491;SDS011;14927;51.210;6.838;2023-08-17T02:07:24;2.75;;;1.90;;
27491;SDS011;14927;51.210;6.838;2023-08-17T02:10:09;3.70;;;1.77;;
27491;SDS011;14927;51.210;6.838;2023-08-17T02:12:53;3.55;;;1.85;;
27491;SDS011;14927;51.210;6.838;2023-08-17T02:15:38;5.13;;;2.08;;
27491;SDS011;14927;51.210;6.838;2023-08-17T02:18:23;3.80;;;1.70;;
27491;SDS011;14927;51.210;6.838;2023-08-17T02:21:08;2.78;;;1.65;;
27491;SDS011;14927;51.210;6.838;2023-08-17T02:23:52;4.75;;;1.85;;
27491;SDS011;14927;51.210;6.838;2023-08-17T02:26:37;5.95;;;2.33;;
27491;SDS011;14927;51.210;6.838;2023-08-17T02:29:22;3.72;;;1.85;;
27491;SDS011;14927;51.210;6.838;2023-08-17T02:32:06;2.53;;;1.70;;
27491;SDS011;14927;51.210;6.838;2023-08-17T02:34:51;3.20;;;2.00;;
27491;SDS011;14927;51.210;6.838;2023-08-17T02:37:36;3.92;;;2.10;;
27491;SDS011;14927;51.210;6.838;2023-08-17T02:40:21;4.60;;;2.60;;
27491;SDS011;14927;51.210;6.838;2023-08-17T02:43:06;2.72;;;2.33;;
27491;SDS011;14927;51.210;6.838;2023-08-17T02:45:51;4.30;;;2.40;;
27491;SDS011;14927;51.210;6.838;2023-08-17T02:48:36;6.20;;;2.60;;
27491;SDS011;14927;51.210;6.838;2023-08-17T02:51:20;3.88;;;2.88;;
27491;SDS011;14927;51.210;6.838;2023-08-17T02:54:05;4.00;;;2.72;;
27491;SDS011;14927;51.210;6.838;2023-08-17T02:56:49;3.13;;;2.40;;
27491;SDS011;14927;51.210;6.838;2023-08-17T02:59:34;2.83;;;1.83;;
27491;SDS011;14927;51.210;6.838;2023-08-17T03:02:19;4.55;;;2.35;;
27491;SDS011;14927;51.210;6.838;2023-08-17T03:05:04;3.00;;;2.70;;
27491;SDS011;14927;51.210;6.838;2023-08-17T03:07:48;4.82;;;2.67;;
27491;SDS011;14927;51.210;6.838;2023-08-17T03:10:33;7.10;;;2.80;;
27491;SDS011;14927;51.210;6.838;2023-08-17T03:13:18;3.42;;;2.38;;
27491;SDS011;14927;51.210;6.838;2023-08-17T03:16:02;5.70;;;2.67;;
27491;SDS011;14927;51.210;6.838;2023-08-17T03:18:47;2.85;;;2.42;;
27491;SDS011;14927;51.210;6.838;2023-08-17T03:21:32;3.83;;;2.70;;
27491;SDS011;14927;51.210;6.838;2023-08-17T03:24:17;4.93;;;3.05;;
27491;SDS011;14927;51.210;6.838;2023-08-17T03:27:02;3.58;;;2.67;;
27491;SDS011;14927;51.210;6.838;2023-08-17T03:29:46;2.40;;;2.17;;
27491;SDS011;14927;51.210;6.838;2023-08-17T03:32:31;3.05;;;2.50;;
27491;SDS011;14927;51.210;6.838;2023-08-17T03:35:16;5.50;;;4.03;;
27491;SDS011;14927;51.210;6.838;2023-08-17T03:38:00;5.32;;;3.30;;
27491;SDS011;14927;51.210;6.838;2023-08-17T03:40:46;5.45;;;3.92;;
27491;SDS011;14927;51.210;6.838;2023-08-17T03:43:31;9.25;;;5.45;;
27491;SDS011;14927;51.210;6.838;2023-08-17T03:46:15;7.15;;;6.45;;
27491;SDS011;14927;51.210;6.838;2023-08-17T03:49:00;9.18;;;7.28;;
27491;SDS011;14927;51.210;6.838;2023-08-17T03:51:46;9.68;;;7.40;;
27491;SDS011;14927;51.210;6.838;2023-08-17T03:54:31;10.10;;;8.13;;
27491;SDS011;14927;51.210;6.838;2023-08-17T03:57:15;17.45;;;9.80;;
27491;SDS011;14927;51.210;6.838;2023-08-17T04:00:00;11.98;;;9.55;;
27491;SDS011;14927;51.210;6.838;2023-08-17T04:02:46;13.75;;;10.13;;
27491;SDS011;14927;51.210;6.838;2023-08-17T04:05:31;11.15;;;8.35;;
27491;SDS011;14927;51.210;6.838;2023-08-17T04:08:16;17.20;;;10.85;;
27491;SDS011;14927;51.210;6.838;2023-08-17T04:11:01;12.45;;;10.80;;
27491;SDS011;14927;51.210;6.838;2023-08-17T04:13:45;13.35;;;11.02;;
27491;SDS011;14927;51.210;6.838;2023-08-17T04:16:30;18.60;;;12.75;;
27491;SDS011;14927;51.210;6.838;2023-08-17T04:19:15;19.60;;;13.55;;
27491;SDS011;14927;51.210;6.838;2023-08-17T04:22:00;13.88;;;12.00;;
27491;SDS011;14927;51.210;6.838;2023-08-17T04:24:45;14.75;;;12.10;;
27491;SDS011;14927;51.210;6.838;2023-08-17T04:27:29;15.82;;;13.00;;
27491;SDS011;14927;51.210;6.838;2023-08-17T04:30:15;16.13;;;13.32;;
27491;SDS011;14927;51.210;6.838;2023-08-17T04:33:00;16.00;;;13.27;;
27491;SDS011;14927;51.210;6.838;2023-08-17T04:35:46;16.45;;;12.82;;
27491;SDS011;14927;51.210;6.838;2023-08-17T04:38:31;16.15;;;12.77;;
27491;SDS011;14927;51.210;6.838;2023-08-17T04:41:17;16.50;;;13.80;;
27491;SDS011;14927;51.210;6.838;2023-08-17T04:44:02;16.30;;;12.77;;
27491;SDS011;14927;51.210;6.838;2023-08-17T04:46:47;18.20;;;12.93;;
27491;SDS011;14927;51.210;6.838;2023-08-17T04:49:31;16.27;;;12.48;;
27491;SDS011;14927;51.210;6.838;2023-08-17T04:52:16;15.57;;;12.07;;
27491;SDS011;14927;51.210;6.838;2023-08-17T04:55:01;13.02;;;11.70;;
27491;SDS011;14927;51.210;6.838;2023-08-17T04:57:45;14.18;;;11.90;;
27491;SDS011;14927;51.210;6.838;2023-08-17T05:00:30;13.68;;;11.52;;
27491;SDS011;14927;51.210;6.838;2023-08-17T05:03:15;12.48;;;10.95;;
27491;SDS011;14927;51.210;6.838;2023-08-17T05:05:59;12.55;;;10.25;;
27491;SDS011;14927;51.210;6.838;2023-08-17T05:08:44;13.75;;;9.10;;
27491;SDS011;14927;51.210;6.838;2023-08-17T05:11:28;10.43;;;9.38;;
27491;SDS011;14927;51.210;6.838;2023-08-17T05:14:13;11.30;;;8.52;;
27491;SDS011;14927;51.210;6.838;2023-08-17T05:16:58;10.88;;;8.40;;
27491;SDS011;14927;51.210;6.838;2023-08-17T05:19:43;9.65;;;8.20;;
27491;SDS011;14927;51.210;6.838;2023-08-17T05:22:27;8.75;;;7.47;;
27491;SDS011;14927;51.210;6.838;2023-08-17T05:25:12;8.40;;;7.00;;
27491;SDS011;14927;51.210;6.838;2023-08-17T05:27:56;7.60;;;6.80;;
27491;SDS011;14927;51.210;6.838;2023-08-17T05:30:41;9.50;;;7.55;;
27491;SDS011;14927;51.210;6.838;2023-08-17T05:33:26;11.70;;;7.15;;
27491;SDS011;14927;51.210;6.838;2023-08-17T05:36:10;9.27;;;6.90;;
27491;SDS011;14927;51.210;6.838;2023-08-17T05:38:56;9.27;;;6.85;;
27491;SDS011;14927;51.210;6.838;2023-08-17T05:41:41;10.73;;;6.95;;
27491;SDS011;14927;51.210;6.838;2023-08-17T05:44:25;8.50;;;6.85;;
27491;SDS011;14927;51.210;6.838;2023-08-17T05:47:10;10.77;;;6.05;;
27491;SDS011;14927;51.210;6.838;2023-08-17T05:49:56;9.35;;;6.40;;
27491;SDS011;14927;51.210;6.838;2023-08-17T05:52:41;8.57;;;5.85;;
27491;SDS011;14927;51.210;6.838;2023-08-17T05:55:25;9.38;;;5.72;;
27491;SDS011;14927;51.210;6.838;2023-08-17T05:58:10;11.93;;;6.43;;
27491;SDS011;14927;51.210;6.838;2023-08-17T06:00:54;9.05;;;5.63;;
27491;SDS011;14927;51.210;6.838;2023-08-17T06:03:48;10.07;;;5.50;;
27491;SDS011;14927;51.210;6.838;2023-08-17T06:06:33;7.82;;;5.82;;
27491;SDS011;14927;51.210;6.838;2023-08-17T06:09:18;7.57;;;5.30;;
27491;SDS011;14927;51.210;6.838;2023-08-17T06:12:02;8.57;;;5.50;;
27491;SDS011;14927;51.210;6.838;2023-08-17T06:14:47;8.90;;;5.38;;
27491;SDS011;14927;51.210;6.838;2023-08-17T06:17:32;8.50;;;5.40;;
27491;SDS011;14927;51.210;6.838;2023-08-17T06:20:17;8.70;;;6.78;;
27491;SDS011;14927;51.210;6.838;2023-08-17T06:23:02;8.05;;;5.50;;
27491;SDS011;14927;51.210;6.838;2023-08-17T06:25:48;6.78;;;4.93;;
27491;SDS011;14927;51.210;6.838;2023-08-17T06:28:32;7.88;;;5.70;;
27491;SDS011;14927;51.210;6.838;2023-08-17T06:31:17;10.68;;;5.53;;
27491;SDS011;14927;51.210;6.838;2023-08-17T06:34:02;6.82;;;4.45;;
27491;SDS011;14927;51.210;6.838;2023-08-17T06:36:56;6.30;;;4.47;;
27491;SDS011;14927;51.210;6.838;2023-08-17T06:39:46;14.95;;;5.22;;
27491;SDS011;14927;51.210;6.838;2023-08-17T06:42:32;7.50;;;4.35;;
27491;SDS011;14927;51.210;6.838;2023-08-17T06:45:17;6.20;;;4.40;;
27491;SDS011;14927;51.210;6.838;2023-08-17T06:48:05;8.80;;;4.68;;
27491;SDS011;14927;51.210;6.838;2023-08-17T06:51:01;8.07;;;4.27;;
27491;SDS011;14927;51.210;6.838;2023-08-17T06:53:48;10.95;;;4.47;;
27491;SDS011;14927;51.210;6.838;2023-08-17T06:56:33;7.20;;;4.10;;
27491;SDS011;14927;51.210;6.838;2023-08-17T06:59:17;5.63;;;4.10;;
27491;SDS011;14927;51.210;6.838;2023-08-17T07:02:02;8.18;;;5.28;;
27491;SDS011;14927;51.210;6.838;2023-08-17T07:04:47;6.40;;;4.38;;
27491;SDS011;14927;51.210;6.838;2023-08-17T07:07:32;8.73;;;4.95;;
27491;SDS011;14927;51.210;6.838;2023-08-17T07:10:16;11.40;;;5.60;;
27491;SDS011;14927;51.210;6.838;2023-08-17T07:13:01;5.45;;;4.28;;
27491;SDS011;14927;51.210;6.838;2023-08-17T07:15:47;8.68;;;4.25;;
27491;SDS011;14927;51.210;6.838;2023-08-17T07:18:31;6.25;;;4.50;;
27491;SDS011;14927;51.210;6.838;2023-08-17T07:21:16;5.82;;;4.07;;
27491;SDS011;14927;51.210;6.838;2023-08-17T07:24:11;6.97;;;4.72;;
27491;SDS011;14927;51.210;6.838;2023-08-17T07:26:57;9.52;;;4.93;;
27491;SDS011;14927;51.210;6.838;2023-08-17T07:29:41;6.07;;;4.40;;
27491;SDS011;14927;51.210;6.838;2023-08-17T07:32:26;4.55;;;4.07;;
27491;SDS011;14927;51.210;6.838;2023-08-17T07:35:10;5.68;;;4.22;;
27491;SDS011;14927;51.210;6.838;2023-08-17T07:37:55;10.82;;;4.45;;
27491;SDS011;14927;51.210;6.838;2023-08-17T07:40:40;5.90;;;4.32;;
27491;SDS011;14927;51.210;6.838;2023-08-17T07:43:26;4.95;;;4.07;;
27491;SDS011;14927;51.210;6.838;2023-08-17T07:46:11;6.00;;;4.20;;
27491;SDS011;14927;51.210;6.838;2023-08-17T07:48:55;5.93;;;3.92;;
27491;SDS011;14927;51.210;6.838;2023-08-17T07:51:40;6.30;;;4.45;;
27491;SDS011;14927;51.210;6.838;2023-08-17T07:54:25;5.95;;;4.70;;
27491;SDS011;14927;51.210;6.838;2023-08-17T07:57:10;8.07;;;5.20;;
27491;SDS011;14927;51.210;6.838;2023-08-17T07:59:55;9.05;;;5.10;;
27491;SDS011;14927;51.210;6.838;2023-08-17T08:02:39;7.00;;;5.18;;
27491;SDS011;14927;51.210;6.838;2023-08-17T08:05:24;8.10;;;5.60;;
27491;SDS011;14927;51.210;6.838;2023-08-17T08:08:10;5.18;;;4.68;;
27491;SDS011;14927;51.210;6.838;2023-08-17T08:10:54;7.28;;;4.50;;
27491;SDS011;14927;51.210;6.838;2023-08-17T08:13:39;7.85;;;5.10;;
27491;SDS011;14927;51.210;6.838;2023-08-17T08:16:23;6.80;;;5.05;;
27491;SDS011;14927;51.210;6.838;2023-08-17T08:19:09;7.63;;;5.30;;
27491;SDS011;14927;51.210;6.838;2023-08-17T08:21:53;6.72;;;5.20;;
27491;SDS011;14927;51.210;6.838;2023-08-17T08:24:38;8.73;;;4.72;;
27491;SDS011;14927;51.210;6.838;2023-08-17T08:27:24;7.38;;;5.38;;
27491;SDS011;14927;51.210;6.838;2023-08-17T08:30:09;10.70;;;6.13;;
27491;SDS011;14927;51.210;6.838;2023-08-17T08:32:54;15.10;;;6.82;;
27491;SDS011;14927;51.210;6.838;2023-08-17T08:35:41;8.35;;;5.72;;
27491;SDS011;14927;51.210;6.838;2023-08-17T08:38:26;9.68;;;6.05;;
27491;SDS011;14927;51.210;6.838;2023-08-17T08:41:11;7.95;;;5.40;;
27491;SDS011;14927;51.210;6.838;2023-08-17T08:43:55;9.02;;;5.97;;
27491;SDS011;14927;51.210;6.838;2023-08-17T08:46:40;9.27;;;5.75;;
27491;SDS011;14927;51.210;6.838;2023-08-17T08:49:28;9.35;;;5.03;;
27491;SDS011;14927;51.210;6.838;2023-08-17T08:52:15;10.35;;;5.05;;
27491;SDS011;14927;51.210;6.838;2023-08-17T08:55:11;7.78;;;5.72;;
27491;SDS011;14927;51.210;6.838;2023-08-17T08:58:05;8.32;;;5.60;;
27491;SDS011;14927;51.210;6.838;2023-08-17T09:00:51;6.50;;;4.50;;
27491;SDS011;14927;51.210;6.838;2023-08-17T09:03:37;9.45;;;5.35;;
27491;SDS011;14927;51.210;6.838;2023-08-17T09:06:22;7.10;;;5.40;;
27491;SDS011;14927;51.210;6.838;2023-08-17T09:09:09;10.13;;;5.30;;
27491;SDS011;14927;51.210;6.838;2023-08-17T09:11:56;6.03;;;4.82;;
27491;SDS011;14927;51.210;6.838;2023-08-17T09:14:41;7.90;;;5.45;;
27491;SDS011;14927;51.210;6.838;2023-08-17T09:17:26;7.97;;;5.70;;
27491;SDS011;14927;51.210;6.838;2023-08-17T09:20:11;8.40;;;4.95;;
27491;SDS011;14927;51.210;6.838;2023-08-17T09:22:56;5.78;;;4.57;;
27491;SDS011;14927;51.210;6.838;2023-08-17T09:25:48;7.80;;;5.25;;
27491;SDS011;14927;51.210;6.838;2023-08-17T09:28:41;10.82;;;6.47;;
27491;SDS011;14927;51.210;6.838;2023-08-17T09:31:26;10.68;;;7.65;;
27491;SDS011;14927;51.210;6.838;2023-08-17T09:34:14;9.80;;;8.15;;
27491;SDS011;14927;51.210;6.838;2023-08-17T09:37:05;9.63;;;8.35;;
27491;SDS011;14927;51.210;6.838;2023-08-17T09:39:49;9.60;;;7.78;;
27491;SDS011;14927;51.210;6.838;2023-08-17T09:42:34;10.43;;;8.00;;
27491;SDS011;14927;51.210;6.838;2023-08-17T09:45:19;8.40;;;7.32;;
27491;SDS011;14927;51.210;6.838;2023-08-17T09:48:04;18.73;;;9.60;;
27491;SDS011;14927;51.210;6.838;2023-08-17T09:50:50;14.43;;;9.50;;
27491;SDS011;14927;51.210;6.838;2023-08-17T09:53:35;11.38;;;8.25;;
27491;SDS011;14927;51.210;6.838;2023-08-17T09:56:23;8.77;;;7.68;;
27491;SDS011;14927;51.210;6.838;2023-08-17T09:59:08;8.57;;;7.68;;
27491;SDS011;14927;51.210;6.838;2023-08-17T10:01:52;13.18;;;8.98;;
27491;SDS011;14927;51.210;6.838;2023-08-17T10:04:39;11.45;;;8.02;;
27491;SDS011;14927;51.210;6.838;2023-08-17T10:07:24;9.32;;;7.63;;
27491;SDS011;14927;51.210;6.838;2023-08-17T10:10:14;11.52;;;7.68;;
27491;SDS011;14927;51.210;6.838;2023-08-17T10:13:28;9.45;;;6.57;;
27491;SDS011;14927;51.210;6.838;2023-08-17T10:16:54;9.05;;;6.28;;
27491;SDS011;14927;51.210;6.838;2023-08-17T10:19:49;10.13;;;6.45;;
27491;SDS011;14927;51.210;6.838;2023-08-17T10:22:51;9.30;;;6.88;;
27491;SDS011;14927;51.210;6.838;2023-08-17T10:25:38;9.27;;;6.63;;
27491;SDS011;14927;51.210;6.838;2023-08-17T10:28:25;7.03;;;5.88;;
27491;SDS011;14927;51.210;6.838;2023-08-17T10:31:09;8.85;;;6.40;;
27491;SDS011;14927;51.210;6.838;2023-08-17T10:33:55;8.57;;;7.07;;
27491;SDS011;14927;51.210;6.838;2023-08-17T10:36:41;7.85;;;7.05;;
27491;SDS011;14927;51.210;6.838;2023-08-17T10:39:27;10.43;;;7.82;;
27491;SDS011;14927;51.210;6.838;2023-08-17T10:42:13;11.65;;;7.78;;
27491;SDS011;14927;51.210;6.838;2023-08-17T10:44:58;12.77;;;9.23;;
27491;SDS011;14927;51.210;6.838;2023-08-17T10:47:45;19.08;;;10.85;;
27491;SDS011;14927;51.210;6.838;2023-08-17T10:50:30;17.63;;;10.68;;
27491;SDS011;14927;51.210;6.838;2023-08-17T10:53:14;15.40;;;10.77;;
27491;SDS011;14927;51.210;6.838;2023-08-17T10:56:00;15.10;;;10.73;;
27491;SDS011;14927;51.210;6.838;2023-08-17T10:58:45;14.30;;;10.38;;
27491;SDS011;14927;51.210;6.838;2023-08-17T11:01:36;11.68;;;8.80;;
27491;SDS011;14927;51.210;6.838;2023-08-17T11:04:24;10.80;;;8.00;;
27491;SDS011;14927;51.210;6.838;2023-08-17T11:07:13;12.40;;;9.13;;
27491;SDS011;14927;51.210;6.838;2023-08-17T11:09:59;10.98;;;8.15;;
27491;SDS011;14927;51.210;6.838;2023-08-17T11:12:45;10.15;;;7.15;;
27491;SDS011;14927;51.210;6.838;2023-08-17T11:15:38;11.57;;;7.25;;
27491;SDS011;14927;51.210;6.838;2023-08-17T11:18:27;8.38;;;6.28;;
27491;SDS011;14927;51.210;6.838;2023-08-17T11:21:12;10.30;;;7.03;;
27491;SDS011;14927;51.210;6.838;2023-08-17T11:23:58;10.52;;;6.68;;
27491;SDS011;14927;51.210;6.838;2023-08-17T11:26:44;8.90;;;6.50;;
27491;SDS011;14927;51.210;6.838;2023-08-17T11:29:31;8.88;;;6.88;;
27491;SDS011;14927;51.210;6.838;2023-08-17T11:32:16;11.82;;;6.70;;
27491;SDS011;14927;51.210;6.838;2023-08-17T11:35:01;9.23;;;6.05;;
27491;SDS011;14927;51.210;6.838;2023-08-17T11:37:47;9.18;;;7.03;;
27491;SDS011;14927;51.210;6.838;2023-08-17T11:40:32;9.27;;;6.20;;
27491;SDS011;14927;51.210;6.838;2023-08-17T11:43:17;11.00;;;6.60;;
27491;SDS011;14927;51.210;6.838;2023-08-17T11:46:04;7.53;;;5.32;;
27491;SDS011;14927;51.210;6.838;2023-08-17T11:48:49;8.10;;;5.82;;
27491;SDS011;14927;51.210;6.838;2023-08-17T11:51:37;9.82;;;6.40;;
27491;SDS011;14927;51.210;6.838;2023-08-17T11:54:24;8.18;;;6.30;;
27491;SDS011;14927;51.210;6.838;2023-08-17T11:57:08;7.55;;;5.97;;
27491;SDS011;14927;51.210;6.838;2023-08-17T11:59:54;7.05;;;5.82;;
27491;SDS011;14927;51.210;6.838;2023-08-17T12:02:39;6.35;;;5.75;;
27491;SDS011;14927;51.210;6.838;2023-08-17T12:05:26;6.72;;;5.70;;
27491;SDS011;14927;51.210;6.838;2023-08-17T12:08:12;7.00;;;5.40;;
27491;SDS011;14927;51.210;6.838;2023-08-17T12:11:00;6.53;;;5.40;;
27491;SDS011;14927;51.210;6.838;2023-08-17T12:13:49;7.18;;;6.07;;
27491;SDS011;14927;51.210;6.838;2023-08-17T12:16:44;6.47;;;5.47;;
27491;SDS011;14927;51.210;6.838;2023-08-17T12:19:32;7.63;;;6.30;;
27491;SDS011;14927;51.210;6.838;2023-08-17T12:22:17;8.93;;;5.22;;
27491;SDS011;14927;51.210;6.838;2023-08-17T12:25:03;7.60;;;5.28;;
27491;SDS011;14927;51.210;6.838;2023-08-17T12:27:48;6.28;;;5.60;;
27491;SDS011;14927;51.210;6.838;2023-08-17T12:30:32;6.32;;;5.28;;
27491;SDS011;14927;51.210;6.838;2023-08-17T12:33:20;8.90;;;6.35;;
27491;SDS011;14927;51.210;6.838;2023-08-17T12:36:05;7.20;;;4.97;;
27491;SDS011;14927;51.210;6.838;2023-08-17T12:38:50;7.00;;;5.60;;
27491;SDS011;14927;51.210;6.838;2023-08-17T12:41:35;7.65;;;5.93;;
27491;SDS011;14927;51.210;6.838;2023-08-17T12:44:20;6.75;;;5.38;;
27491;SDS011;14927;51.210;6.838;2023-08-17T12:47:04;7.15;;;5.95;;
27491;SDS011;14927;51.210;6.838;2023-08-17T12:49:49;5.97;;;4.78;;
27491;SDS011;14927;51.210;6.838;2023-08-17T12:52:34;5.15;;;4.65;;
27491;SDS011;14927;51.210;6.838;2023-08-17T12:55:19;5.57;;;4.68;;
27491;SDS011;14927;51.210;6.838;2023-08-17T12:58:03;6.07;;;4.68;;
27491;SDS011;14927;51.210;6.838;2023-08-17T13:00:51;7.13;;;5.55;;
27491;SDS011;14927;51.210;6.838;2023-08-17T13:03:37;8.20;;;6.07;;
27491;SDS011;14927;51.210;6.838;2023-08-17T13:06:22;7.00;;;5.93;;
27491;SDS011;14927;51.210;6.838;2023-08-17T13:09:07;10.70;;;6.50;;
27491;SDS011;14927;51.210;6.838;2023-08-17T13:11:52;10.38;;;6.60;;
27491;SDS011;14927;51.210;6.838;2023-08-17T13:14:36;9.02;;;6.40;;
27491;SDS011;14927;51.210;6.838;2023-08-17T13:17:21;6.93;;;5.35;;
27491;SDS011;14927;51.210;6.838;2023-08-17T13:20:06;9.60;;;5.80;;
27491;SDS011;14927;51.210;6.838;2023-08-17T13:22:52;6.85;;;5.43;;
27491;SDS011;14927;51.210;6.838;2023-08-17T13:25:37;6.43;;;5.47;;
27491;SDS011;14927;51.210;6.838;2023-08-17T13:28:21;5.90;;;5.20;;
27491;SDS011;14927;51.210;6.838;2023-08-17T13:31:06;5.82;;;4.97;;
27491;SDS011;14927;51.210;6.838;2023-08-17T13:33:51;6.20;;;4.70;;
27491;SDS011;14927;51.210;6.838;2023-08-17T13:36:36;6.82;;;5.10;;
27491;SDS011;14927;51.210;6.838;2023-08-17T13:39:20;6.30;;;5.10;;
27491;SDS011;14927;51.210;6.838;2023-08-17T13:42:05;6.00;;;5.18;;
27491;SDS011;14927;51.210;6.838;2023-08-17T13:44:50;5.10;;;4.38;;
27491;SDS011;14927;51.210;6.838;2023-08-17T13:47:34;6.97;;;4.45;;
27491;SDS011;14927;51.210;6.838;2023-08-17T13:50:19;6.03;;;4.90;;
27491;SDS011;14927;51.210;6.838;2023-08-17T13:53:04;8.27;;;4.75;;
27491;SDS011;14927;51.210;6.838;2023-08-17T13:55:49;9.68;;;4.20;;
27491;SDS011;14927;51.210;6.838;2023-08-17T13:58:33;4.85;;;4.20;;
27491;SDS011;14927;51.210;6.838;2023-08-17T14:01:18;6.55;;;4.35;;
27491;SDS011;14927;51.210;6.838;2023-08-17T14:04:03;6.72;;;4.35;;
27491;SDS011;14927;51.210;6.838;2023-08-17T14:06:54;5.60;;;4.35;;
27491;SDS011;14927;51.210;6.838;2023-08-17T14:09:39;5.40;;;4.35;;
27491;SDS011;14927;51.210;6.838;2023-08-17T14:12:24;6.13;;;4.22;;
27491;SDS011;14927;51.210;6.838;2023-08-17T14:15:08;6.32;;;3.75;;
27491;SDS011;14927;51.210;6.838;2023-08-17T14:17:53;5.32;;;4.40;;
27491;SDS011;14927;51.210;6.838;2023-08-17T14:20:38;4.72;;;4.22;;
27491;SDS011;14927;51.210;6.838;2023-08-17T14:23:23;4.80;;;4.32;;
27491;SDS011;14927;51.210;6.838;2023-08-17T14:26:07;8.10;;;4.57;;
27491;SDS011;14927;51.210;6.838;2023-08-17T14:28:52;5.28;;;4.47;;
27491;SDS011;14927;51.210;6.838;2023-08-17T14:31:37;5.75;;;4.80;;
27491;SDS011;14927;51.210;6.838;2023-08-17T14:34:22;7.50;;;4.50;;
27491;SDS011;14927;51.210;6.838;2023-08-17T14:37:06;6.55;;;4.13;;
27491;SDS011;14927;51.210;6.838;2023-08-17T14:39:51;4.53;;;3.72;;
27491;SDS011;14927;51.210;6.838;2023-08-17T14:42:36;7.78;;;4.00;;
27491;SDS011;14927;51.210;6.838;2023-08-17T14:45:22;4.63;;;3.80;;
27491;SDS011;14927;51.210;6.838;2023-08-17T14:48:07;3.67;;;3.22;;
27491;SDS011;14927;51.210;6.838;2023-08-17T14:50:52;3.63;;;3.05;;
27491;SDS011;14927;51.210;6.838;2023-08-17T14:53:36;6.18;;;3.47;;
27491;SDS011;14927;51.210;6.838;2023-08-17T14:56:21;4.28;;;3.67;;
27491;SDS011;14927;51.210;6.838;2023-08-17T14:59:06;6.18;;;4.68;;
27491;SDS011;14927;51.210;6.838;2023-08-17T15:01:51;7.03;;;4.57;;
27491;SDS011;14927;51.210;6.838;2023-08-17T15:04:39;6.43;;;5.75;;
27491;SDS011;14927;51.210;6.838;2023-08-17T15:07:24;5.72;;;4.82;;
27491;SDS011;14927;51.210;6.838;2023-08-17T15:10:08;8.80;;;5.88;;
27491;SDS011;14927;51.210;6.838;2023-08-17T15:12:53;9.00;;;6.75;;
27491;SDS011;14927;51.210;6.838;2023-08-17T15:15:38;9.25;;;6.15;;
27491;SDS011;14927;51.210;6.838;2023-08-17T15:18:22;9.73;;;6.97;;
27491;SDS011;14927;51.210;6.838;2023-08-17T15:21:07;11.68;;;7.07;;
27491;SDS011;14927;51.210;6.838;2023-08-17T15:23:53;9.25;;;7.72;;
27491;SDS011;14927;51.210;6.838;2023-08-17T15:26:38;9.80;;;7.88;;
27491;SDS011;14927;51.210;6.838;2023-08-17T15:29:22;8.80;;;7.88;;
27491;SDS011;14927;51.210;6.838;2023-08-17T15:32:07;9.05;;;7.55;;
27491;SDS011;14927;51.210;6.838;2023-08-17T15:34:53;10.05;;;7.35;;
27491;SDS011;14927;51.210;6.838;2023-08-17T15:37:38;8.60;;;7.03;;
27491;SDS011;14927;51.210;6.838;2023-08-17T15:40:22;8.07;;;6.63;;
27491;SDS011;14927;51.210;6.838;2023-08-17T15:43:07;8.23;;;6.35;;
27491;SDS011;14927;51.210;6.838;2023-08-17T15:45:51;7.95;;;5.97;;
27491;SDS011;14927;51.210;6.838;2023-08-17T15:48:36;7.13;;;6.20;;
27491;SDS011;14927;51.210;6.838;2023-08-17T15:51:21;8.25;;;6.53;;
27491;SDS011;14927;51.210;6.838;2023-08-17T15:54:07;8.75;;;5.72;;
27491;SDS011;14927;51.210;6.838;2023-08-17T15:56:51;8.55;;;6.68;;
27491;SDS011;14927;51.210;6.838;2023-08-17T15:59:36;11.15;;;6.32;;
27491;SDS011;14927;51.210;6.838;2023-08-17T16:02:22;8.60;;;6.70;;
27491;SDS011;14927;51.210;6.838;2023-08-17T16:05:07;8.90;;;6.45;;
27491;SDS011;14927;51.210;6.838;2023-08-17T16:07:51;7.40;;;4.85;;
27491;SDS011;14927;51.210;6.838;2023-08-17T16:10:36;8.27;;;5.43;;
27491;SDS011;14927;51.210;6.838;2023-08-17T16:13:21;7.82;;;4.80;;
27491;SDS011;14927;51.210;6.838;2023-08-17T16:16:05;8.07;;;5.55;;
27491;SDS011;14927;51.210;6.838;2023-08-17T16:18:50;6.47;;;4.90;;
27491;SDS011;14927;51.210;6.838;2023-08-17T16:21:35;6.18;;;5.57;;
27491;SDS011;14927;51.210;6.838;2023-08-17T16:24:19;7.65;;;5.60;;
27491;SDS011;14927;51.210;6.838;2023-08-17T16:27:04;6.70;;;5.35;;
27491;SDS011;14927;51.210;6.838;2023-08-17T16:29:49;5.25;;;4.82;;
27491;SDS011;14927;51.210;6.838;2023-08-17T16:32:34;7.70;;;4.93;;
27491;SDS011;14927;51.210;6.838;2023-08-17T16:35:19;6.78;;;5.32;;
27491;SDS011;14927;51.210;6.838;2023-08-17T16:38:04;6.07;;;5.03;;